Time;durP1;ratioP1;P1;durP2;ratioP2;P2;SDS_P1;SDS_P2;PMS_P1;PMS_P2;Temp;Humidity;BMP_temperature;BMP_pressure;BME280_temperature;BME280_humidity;BME280_pressure;Samples;Min_cycle;Max_cycle;Signal;HPM_P1;HPM_P2
2021/03/22 00:01:00;;;;;;;6.85;2.25;;;;;;;25.09;27.15;96849.59;5044640;28;20040;-28
2021/03/22 00:03:25;;;;;;;5.68;2.05;;;;;;;25.10;27.01;96854.75;5046471;28;20621;-28
2021/03/22 00:05:51;;;;;;;4.22;2.05;;;;;;;25.09;27.37;96854.84;5048977;28;20024;-30
2021/03/22 00:08:17;;;;;;;4.13;2.10;;;;;;;25.10;27.17;96861.75;5045387;28;20470;-28
2021/03/22 00:10:43;;;;;;;6.28;2.25;;;;;;;25.08;26.92;96861.84;5045336;28;20287;-29
2021/03/22 00:13:09;;;;;;;3.97;1.83;;;;;;;25.10;27.04;96864.38;5048362;28;20028;-28
2021/03/22 00:15:35;;;;;;;8.52;2.28;;;;;;;25.09;27.19;96860.91;5065238;28;20066;-28
2021/03/22 00:18:00;;;;;;;6.13;2.60;;;;;;;25.10;27.06;96851.28;5026479;28;20399;-27
2021/03/22 00:20:26;;;;;;;8.63;2.50;;;;;;;25.09;27.07;96849.59;5049552;28;20036;-28
2021/03/22 00:22:52;;;;;;;6.88;2.38;;;;;;;25.09;26.94;96849.59;5052833;28;20032;-28
2021/03/22 00:25:18;;;;;;;8.27;2.45;;;;;;;25.09;26.96;96850.41;5059719;28;20025;-30
2021/03/22 00:27:43;;;;;;;9.52;2.65;;;;;;;25.08;26.94;96858.34;5053272;28;20017;-29
2021/03/22 00:30:09;;;;;;;7.13;2.60;;;;;;;25.08;26.94;96856.59;5058075;28;20032;-28
2021/03/22 00:32:35;;;;;;;4.90;2.25;;;;;;;25.08;27.03;96858.34;5051310;28;20025;-28
2021/03/22 00:35:00;;;;;;;7.07;2.28;;;;;;;25.08;26.84;96850.50;5053093;28;20605;-28
2021/03/22 00:37:26;;;;;;;7.00;2.58;;;;;;;25.07;27.06;96854.03;5054753;28;20037;-28
2021/03/22 00:39:51;;;;;;;6.68;2.60;;;;;;;25.07;27.00;96856.66;5050423;28;20032;-27
2021/03/22 00:42:16;;;;;;;5.63;2.28;;;;;;;25.06;26.83;96850.59;5059066;28;20352;-30
2021/03/22 00:44:42;;;;;;;6.95;2.67;;;;;;;25.07;27.09;96861.91;5051242;28;20032;-27
2021/03/22 00:47:07;;;;;;;8.40;2.47;;;;;;;25.05;27.04;96854.97;5057987;28;20043;-28
2021/03/22 00:49:33;;;;;;;6.78;2.65;;;;;;;25.06;27.00;96858.47;5048263;28;20032;-28
2021/03/22 00:51:58;;;;;;;6.75;2.60;;;;;;;25.05;26.90;96857.59;5045736;28;20028;-28
2021/03/22 00:54:24;;;;;;;5.13;2.38;;;;;;;25.05;26.84;96854.97;5043947;28;20036;-27
2021/03/22 00:56:49;;;;;;;7.03;2.83;;;;;;;25.05;26.77;96854.97;5054750;28;20037;-27
2021/03/22 00:59:16;;;;;;;7.38;2.40;;;;;;;25.04;26.87;96847.19;5052028;28;20976;-27
2021/03/22 01:01:42;;;;;;;7.30;2.38;;;;;;;25.04;26.93;96848.03;5043697;28;20045;-27
2021/03/22 01:04:07;;;;;;;7.45;2.70;;;;;;;25.04;26.92;96848.03;5046535;28;20024;-29
2021/03/22 01:06:33;;;;;;;7.40;2.85;;;;;;;25.04;26.75;96848.03;5045675;28;20020;-28
2021/03/22 01:08:58;;;;;;;4.95;2.20;;;;;;;25.04;26.95;96845.41;5044593;28;20029;-30
2021/03/22 01:11:23;;;;;;;6.40;2.35;;;;;;;25.05;27.03;96841.00;5043044;28;20039;-28
2021/03/22 01:13:52;;;;;;;8.77;2.70;;;;;;;25.07;26.76;96835.69;5047145;28;20028;-27
2021/03/22 01:16:21;;;;;;;5.63;2.30;;;;;;;25.06;26.87;96832.25;5044482;28;20044;-27
2021/03/22 01:18:49;;;;;;;8.70;2.20;;;;;;;25.04;26.98;96832.31;5047215;28;20032;-27
2021/03/22 01:21:18;;;;;;;5.38;2.63;;;;;;;25.05;26.84;96828.75;5047690;28;20464;-26
2021/03/22 01:23:44;;;;;;;6.15;2.33;;;;;;;25.04;27.08;96827.06;5046315;28;20399;-28
2021/03/22 01:26:10;;;;;;;4.72;2.60;;;;;;;25.05;26.91;96834.00;5045955;28;20024;-29
2021/03/22 01:28:36;;;;;;;5.88;2.70;;;;;;;25.04;27.03;96824.44;5047456;28;21296;-27
2021/03/22 01:31:02;;;;;;;5.72;2.20;;;;;;;25.04;26.81;96821.81;5048165;28;20045;-28
2021/03/22 01:33:32;;;;;;;5.78;2.25;;;;;;;25.04;26.82;96829.69;5045654;28;20412;-28
2021/03/22 01:35:59;;;;;;;6.63;2.30;;;;;;;25.03;26.85;96824.50;5046100;28;20899;-28
2021/03/22 01:38:24;;;;;;;6.63;2.63;;;;;;;25.05;26.96;96814.78;5042760;28;20119;-27
2021/03/22 01:41:13;;;;;;;7.30;2.65;;;;;;;25.04;26.98;96816.56;5026989;28;20400;-27
2021/03/22 01:43:49;;;;;;;7.13;2.60;;;;;;;25.04;27.05;96807.84;5043576;28;20026;-27
2021/03/22 01:46:15;;;;;;;6.60;2.53;;;;;;;25.03;26.75;96814.88;5027601;28;20534;-28
2021/03/22 01:48:40;;;;;;;5.65;2.38;;;;;;;25.03;26.75;96821.91;5028335;28;20035;-27
2021/03/22 01:51:06;;;;;;;5.00;2.40;;;;;;;25.02;26.97;96815.78;5047082;28;20035;-27
2021/03/22 01:53:32;;;;;;;8.45;2.65;;;;;;;25.03;26.77;96821.91;5056532;28;20161;-28
2021/03/22 01:56:09;;;;;;;7.78;2.75;;;;;;;25.01;26.87;96808.84;5039949;28;20054;-28
2021/03/22 01:58:35;;;;;;;6.53;2.63;;;;;;;25.02;26.83;96812.34;5054916;28;20024;-27
2021/03/22 02:01:00;;;;;;;5.72;2.60;;;;;;;25.02;26.75;96807.91;5054218;28;20071;-27
2021/03/22 02:03:26;;;;;;;7.10;2.58;;;;;;;25.02;26.74;96814.97;5043894;28;20028;-27
2021/03/22 02:05:51;;;;;;;7.70;2.90;;;;;;;25.02;26.57;96812.34;5045425;28;20116;-28
2021/03/22 02:08:39;;;;;;;7.68;2.55;;;;;;;25.00;26.85;96809.78;5045118;28;20094;-27
2021/03/22 02:11:06;;;;;;;8.55;2.90;;;;;;;25.01;26.80;96801.00;5039654;28;20021;-25
2021/03/22 02:13:34;;;;;;;7.65;2.85;;;;;;;25.01;26.58;96801.00;5044317;28;20025;-27
2021/03/22 02:16:18;;;;;;;8.63;2.78;;;;;;;25.00;26.63;96808.94;5043212;28;20067;-28
2021/03/22 02:19:40;;;;;;;8.02;2.65;;;;;;;24.99;26.56;96810.72;5028106;28;20555;-27
2021/03/22 02:22:33;;;;;;;7.53;2.67;;;;;;;25.00;26.79;96808.94;5042355;28;20024;-28
2021/03/22 02:25:11;;;;;;;8.88;2.75;;;;;;;25.00;26.61;96814.16;5047507;28;20103;-28
2021/03/22 02:27:45;;;;;;;5.97;3.10;;;;;;;24.98;26.65;96808.16;5043315;28;20488;-26
2021/03/22 02:30:39;;;;;;;7.85;2.70;;;;;;;24.97;26.75;96809.09;5044847;28;20033;-27
2021/03/22 02:33:45;;;;;;;6.72;2.40;;;;;;;24.96;26.67;96808.25;5042641;28;20021;-27
2021/03/22 02:36:15;;;;;;;5.80;2.58;;;;;;;24.97;26.68;96811.72;5045271;28;20446;-27
2021/03/22 02:38:47;;;;;;;6.45;2.70;;;;;;;24.97;26.63;96825.66;5042638;28;20190;-28
2021/03/22 02:41:19;;;;;;;6.82;2.55;;;;;;;24.96;26.66;96823.09;5042463;28;20476;-27
2021/03/22 02:44:02;;;;;;;7.88;2.75;;;;;;;24.96;26.63;96828.34;5011261;28;20170;-27
2021/03/22 02:46:28;;;;;;;5.78;2.50;;;;;;;24.95;26.80;96824.91;5041379;28;20214;-27
2021/03/22 02:48:53;;;;;;;6.45;2.88;;;;;;;24.96;26.78;96828.34;5047233;28;20548;-26
2021/03/22 02:51:41;;;;;;;6.03;2.72;;;;;;;24.96;26.66;96833.59;5043284;28;20094;-26
2021/03/22 02:54:18;;;;;;;5.65;2.47;;;;;;;24.94;26.59;96820.56;5039460;28;20224;-28
2021/03/22 02:56:53;;;;;;;7.20;2.75;;;;;;;24.95;26.82;96822.28;5009885;28;20123;-26
2021/03/22 02:59:28;;;;;;;9.98;2.90;;;;;;;24.95;26.74;96827.53;5041712;28;21778;-28
2021/03/22 03:01:57;;;;;;;9.07;2.95;;;;;;;24.95;26.71;96824.91;5034170;28;20468;-28
2021/03/22 03:04:22;;;;;;;9.23;2.85;;;;;;;24.94;26.66;96825.81;5053795;28;20449;-27
2021/03/22 03:06:52;;;;;;;6.05;2.60;;;;;;;24.94;26.56;96824.97;5056004;28;20047;-28
2021/03/22 03:09:19;;;;;;;6.55;2.58;;;;;;;24.95;26.64;96822.28;5054106;28;20208;-28
2021/03/22 03:11:45;;;;;;;8.25;3.20;;;;;;;24.94;26.72;96820.56;5055005;28;20024;-27
2021/03/22 03:14:10;;;;;;;7.07;2.70;;;;;;;24.95;26.74;96817.03;5053724;28;20483;-28
2021/03/22 03:16:36;;;;;;;6.55;2.88;;;;;;;24.93;26.49;96818.88;5058367;28;20044;-26
2021/03/22 03:19:01;;;;;;;8.45;2.85;;;;;;;24.95;26.76;96824.03;5065696;28;20039;-28
2021/03/22 03:21:27;;;;;;;8.15;3.10;;;;;;;24.95;26.46;96831.91;5055857;28;20028;-27
2021/03/22 03:23:52;;;;;;;8.73;2.42;;;;;;;24.94;26.59;96836.28;5061368;28;20164;-27
2021/03/22 03:26:18;;;;;;;8.77;2.75;;;;;;;24.93;26.48;96839.84;5063382;28;20028;-27
2021/03/22 03:28:43;;;;;;;8.70;2.75;;;;;;;24.93;26.70;96839.84;5061632;28;20047;-27
2021/03/22 03:31:09;;;;;;;8.85;3.33;;;;;;;24.94;26.60;96836.28;5046466;28;20058;-28
2021/03/22 03:33:34;;;;;;;5.60;2.35;;;;;;;24.93;26.48;96850.31;5046398;28;20037;-28
2021/03/22 03:36:00;;;;;;;5.47;2.75;;;;;;;24.93;26.57;96847.69;5048129;28;20055;-28
2021/03/22 03:38:25;;;;;;;6.65;2.58;;;;;;;24.93;26.53;96852.94;5050263;28;20524;-26
2021/03/22 03:40:50;;;;;;;9.00;2.58;;;;;;;24.94;26.57;96852.00;5044223;28;20762;-27
2021/03/22 03:43:16;;;;;;;6.32;2.38;;;;;;;24.92;26.66;96846.88;5041027;28;20656;-29
2021/03/22 03:45:43;;;;;;;4.95;2.42;;;;;;;24.94;26.71;96845.94;5048168;28;20095;-27
2021/03/22 03:48:13;;;;;;;6.30;2.25;;;;;;;24.93;26.50;96850.31;5044202;28;20067;-27
2021/03/22 03:50:38;;;;;;;7.55;2.92;;;;;;;24.93;26.62;96850.31;5046670;28;20539;-27
2021/03/22 03:53:04;;;;;;;8.18;3.00;;;;;;;24.94;26.64;96856.44;5045609;28;20036;-27
2021/03/22 03:55:30;;;;;;;8.57;3.10;;;;;;;24.92;26.79;96849.50;5050373;28;20037;-28
2021/03/22 03:57:55;;;;;;;7.63;2.78;;;;;;;24.92;26.69;96853.88;5048260;28;20493;-28
2021/03/22 04:00:29;;;;;;;5.85;2.55;;;;;;;24.93;26.67;96847.69;5046525;28;20036;-26
2021/03/22 04:02:55;;;;;;;8.38;2.75;;;;;;;24.93;26.56;96855.56;5047400;28;20036;-28
2021/03/22 04:05:21;;;;;;;7.90;2.53;;;;;;;24.92;26.47;96853.88;5047943;28;20021;-26
2021/03/22 04:07:47;;;;;;;8.07;2.70;;;;;;;24.92;26.55;96854.75;5045626;28;20750;-27
2021/03/22 04:10:12;;;;;;;9.68;2.60;;;;;;;24.93;26.57;96852.94;5046303;28;20028;-26
2021/03/22 04:12:38;;;;;;;8.40;2.63;;;;;;;24.92;26.84;96848.63;5050115;28;20059;-28
2021/03/22 04:15:07;;;;;;;7.47;2.88;;;;;;;24.92;26.71;96848.63;5044229;28;20067;-26
2021/03/22 04:17:32;;;;;;;6.10;2.60;;;;;;;24.92;26.59;96853.88;5040370;28;20067;-28
2021/03/22 04:19:58;;;;;;;6.53;2.70;;;;;;;24.91;26.50;96847.78;5047335;28;20028;-27
2021/03/22 04:22:23;;;;;;;6.45;2.63;;;;;;;24.92;26.77;96851.25;5050471;28;20494;-27
2021/03/22 04:24:49;;;;;;;5.97;2.33;;;;;;;24.92;26.70;96853.88;5048864;28;20029;-26
2021/03/22 04:27:14;;;;;;;5.90;2.22;;;;;;;24.92;26.85;96851.25;5047448;28;20040;-27
2021/03/22 04:29:39;;;;;;;5.40;2.25;;;;;;;24.92;26.59;96853.88;5048998;28;20464;-27
2021/03/22 04:32:05;;;;;;;7.32;2.50;;;;;;;24.92;26.81;96846.00;5055901;28;20055;-25
2021/03/22 04:34:31;;;;;;;9.50;2.90;;;;;;;24.92;26.88;96856.50;5057731;28;20062;-26
2021/03/22 04:36:56;;;;;;;4.70;2.30;;;;;;;24.93;26.69;96852.94;5061535;28;20036;-27
2021/03/22 04:39:22;;;;;;;7.93;3.17;;;;;;;24.92;26.69;96859.13;5060901;28;20021;-26
2021/03/22 04:41:47;;;;;;;5.22;2.45;;;;;;;24.93;26.81;96858.19;5066633;28;20033;-28
2021/03/22 04:44:12;;;;;;;6.45;2.38;;;;;;;24.92;26.73;96864.38;5061087;28;20495;-27
2021/03/22 04:46:38;;;;;;;5.47;2.30;;;;;;;24.92;26.84;96869.59;5062090;28;20039;-26
2021/03/22 04:49:03;;;;;;;5.45;2.30;;;;;;;24.93;26.62;96868.66;5058645;28;20020;-25
2021/03/22 04:51:29;;;;;;;6.22;2.35;;;;;;;24.92;26.71;96869.59;5053649;28;20033;-27
2021/03/22 04:53:55;;;;;;;6.20;2.50;;;;;;;24.93;26.68;96866.06;5048352;28;20032;-27
2021/03/22 04:56:21;;;;;;;6.85;2.30;;;;;;;24.92;26.96;96869.59;5043141;28;20123;-26
2021/03/22 04:58:46;;;;;;;8.02;2.70;;;;;;;24.91;26.92;96868.75;5045788;28;20036;-26
2021/03/22 05:01:12;;;;;;;5.60;2.38;;;;;;;24.92;26.84;96875.72;5059559;28;20032;-27
2021/03/22 05:03:37;;;;;;;7.30;2.67;;;;;;;24.92;26.93;96866.97;5047407;28;20496;-28
2021/03/22 05:06:03;;;;;;;5.10;2.05;;;;;;;24.91;26.96;96868.75;5048359;28;21667;-25
2021/03/22 05:08:28;;;;;;;6.70;2.75;;;;;;;24.92;26.95;96874.84;5047056;28;20567;-27
2021/03/22 05:10:55;;;;;;;11.07;2.67;;;;;;;24.91;26.84;96878.41;5044910;28;20055;-29
2021/03/22 05:13:22;;;;;;;7.18;2.65;;;;;;;24.90;26.97;96881.94;5044791;28;20031;-27
2021/03/22 05:15:47;;;;;;;6.60;2.17;;;;;;;24.90;26.76;96881.94;5044300;28;20037;-27
2021/03/22 05:18:13;;;;;;;4.72;2.05;;;;;;;24.90;26.92;96882.78;5045914;28;20060;-28
2021/03/22 05:20:45;;;;;;;5.53;2.20;;;;;;;24.90;26.93;96874.91;5043818;28;20028;-28
2021/03/22 05:23:13;;;;;;;7.60;2.22;;;;;;;24.90;26.97;96876.72;5026926;28;20032;-29
2021/03/22 05:25:38;;;;;;;8.30;3.08;;;;;;;24.90;26.91;96879.31;5047811;28;20225;-26
2021/03/22 05:28:04;;;;;;;5.25;2.00;;;;;;;24.91;26.71;96891.50;5051084;28;20438;-28
2021/03/22 05:30:30;;;;;;;5.10;2.35;;;;;;;24.90;26.96;96893.25;5042882;28;20033;-27
2021/03/22 05:32:59;;;;;;;5.32;1.95;;;;;;;24.90;26.87;96887.19;5044998;28;20082;-29
2021/03/22 05:35:25;;;;;;;7.25;2.30;;;;;;;24.90;26.75;96892.44;5047830;28;20028;-28
2021/03/22 05:37:51;;;;;;;6.35;2.25;;;;;;;24.90;26.78;96893.25;5040678;28;20086;-30
2021/03/22 05:40:24;;;;;;;5.95;2.00;;;;;;;24.90;26.83;96892.44;5044111;28;20032;-27
2021/03/22 05:43:07;;;;;;;4.68;2.20;;;;;;;24.89;26.94;96891.56;5044312;28;20629;-29
2021/03/22 05:45:51;;;;;;;4.78;2.30;;;;;;;24.89;26.76;96891.56;5042774;28;20851;-28
2021/03/22 05:48:19;;;;;;;6.50;2.40;;;;;;;24.90;26.87;96900.31;5045810;28;20035;-27
2021/03/22 05:51:16;;;;;;;4.32;2.08;;;;;;;24.88;27.03;96900.38;5049147;28;20927;-27
2021/03/22 05:53:50;;;;;;;5.00;2.05;;;;;;;24.89;26.97;96903.81;5035581;28;20032;-27
2021/03/22 05:56:45;;;;;;;5.10;2.05;;;;;;;24.88;26.94;96903.00;5048331;28;20093;-29
2021/03/22 05:59:26;;;;;;;5.07;2.40;;;;;;;24.88;27.07;96899.50;5035710;28;20537;-29
2021/03/22 06:01:54;;;;;;;8.73;2.58;;;;;;;24.87;26.92;96897.81;5058316;28;20135;-27
2021/03/22 06:04:28;;;;;;;5.57;2.40;;;;;;;24.88;27.02;96899.50;5049140;28;20029;-28
2021/03/22 06:06:53;;;;;;;8.45;2.50;;;;;;;24.88;27.10;96910.00;5053253;28;20075;-29
2021/03/22 06:09:28;;;;;;;5.57;2.00;;;;;;;24.87;27.03;96908.31;5051207;28;20501;-28
2021/03/22 06:12:21;;;;;;;4.85;2.13;;;;;;;24.87;26.88;96906.50;5058684;28;20036;-27
2021/03/22 06:14:50;;;;;;;5.93;2.42;;;;;;;24.88;27.00;96912.63;5057989;28;20027;-29
2021/03/22 06:17:30;;;;;;;8.73;2.25;;;;;;;24.87;27.00;96914.38;5054557;28;20041;-27
2021/03/22 06:19:58;;;;;;;8.68;2.10;;;;;;;24.87;27.17;96916.16;5038080;28;20516;-27
2021/03/22 06:22:26;;;;;;;7.13;2.20;;;;;;;24.87;26.94;96918.78;5048756;28;20041;-28
2021/03/22 06:24:52;;;;;;;7.43;2.00;;;;;;;24.86;26.91;96919.72;5047582;28;20051;-28
2021/03/22 06:27:17;;;;;;;6.95;2.67;;;;;;;24.87;26.99;96934.50;5045020;28;20586;-28
2021/03/22 06:29:43;;;;;;;4.47;2.15;;;;;;;24.87;26.96;96921.41;5047341;28;20049;-26
2021/03/22 06:32:23;;;;;;;6.72;2.03;;;;;;;24.86;27.20;96922.34;5046052;28;20045;-27
2021/03/22 06:35:10;;;;;;;7.22;1.92;;;;;;;24.87;27.09;96921.41;5028233;28;20074;-29
2021/03/22 06:37:36;;;;;;;20.42;4.25;;;;;;;24.86;26.83;96922.34;5043073;28;20032;-28
2021/03/22 06:40:09;;;;;;;12.38;3.33;;;;;;;24.86;26.76;96924.97;5044051;28;20219;-27
2021/03/22 06:42:34;;;;;;;6.60;2.17;;;;;;;24.85;27.01;96942.44;5045759;28;20122;-28
2021/03/22 06:45:00;;;;;;;6.10;2.40;;;;;;;24.85;26.81;96931.09;5045430;28;20041;-26
2021/03/22 06:47:32;;;;;;;4.43;2.03;;;;;;;24.85;27.04;96938.97;5043826;28;20123;-27
2021/03/22 06:50:27;;;;;;;5.47;2.13;;;;;;;24.85;27.13;96944.19;5044200;28;20063;-27
2021/03/22 06:52:53;;;;;;;7.00;2.30;;;;;;;24.85;26.87;96941.59;5050641;28;20110;-29
2021/03/22 06:55:30;;;;;;;6.20;2.10;;;;;;;24.85;26.81;96938.97;5048882;28;20056;-27
2021/03/22 06:57:56;;;;;;;6.20;2.72;;;;;;;24.85;26.92;96938.97;5051022;28;20137;-27
2021/03/22 07:00:42;;;;;;;7.45;2.38;;;;;;;24.86;27.11;96944.13;5030928;28;20691;-26
2021/03/22 07:03:25;;;;;;;5.18;2.15;;;;;;;24.86;27.17;96943.31;5044692;28;20568;-26
2021/03/22 07:05:50;;;;;;;6.32;2.50;;;;;;;24.86;26.86;96949.38;5067468;28;20632;-29
2021/03/22 07:08:19;;;;;;;6.75;2.50;;;;;;;24.87;27.06;96960.72;5045287;28;20627;-28
2021/03/22 07:10:51;;;;;;;19.80;2.90;;;;;;;24.86;27.03;96948.53;5045691;28;20074;-28
2021/03/22 07:13:22;;;;;;;15.82;3.45;;;;;;;24.86;26.91;96957.25;5044871;28;20150;-27
2021/03/22 07:15:49;;;;;;;11.10;3.17;;;;;;;24.86;26.69;96954.63;5053343;28;20050;-29
2021/03/22 07:18:19;;;;;;;16.60;3.88;;;;;;;24.86;26.48;96953.78;5053482;28;20029;-27
2021/03/22 07:20:47;;;;;;;6.40;2.50;;;;;;;24.85;26.63;96959.94;5051791;28;20021;-28
2021/03/22 07:23:44;;;;;;;7.95;2.63;;;;;;;24.85;26.72;96962.56;5050711;28;20025;-27
2021/03/22 07:26:09;;;;;;;15.50;4.28;;;;;;;24.82;25.96;96967.94;5052525;28;20021;-27
2021/03/22 07:28:41;;;;;;;14.68;4.47;;;;;;;24.78;25.38;96962.81;5052938;28;20037;-28
2021/03/22 07:31:25;;;;;;;;;;;;;;;24.75;25.45;96964.75;5054758;28;20040;-27
2021/03/22 07:34:18;;;;;;;13.25;4.05;;;;;;;24.67;25.07;96958.06;5055789;28;19916;-26
2021/03/22 07:37:25;;;;;;;17.80;4.25;;;;;;;24.62;25.02;96956.56;5049288;28;20025;-28
2021/03/22 07:40:25;;;;;;;12.95;4.05;;;;;;;24.58;25.12;96960.25;5049494;28;20086;-27
2021/03/22 07:43:05;;;;;;;16.63;3.97;;;;;;;24.52;24.87;96971.88;5055224;28;20491;-26
2021/03/22 07:45:49;;;;;;;13.48;4.10;;;;;;;24.47;24.82;96974.69;5050553;28;20089;-25
2021/03/22 07:48:36;;;;;;;15.38;4.18;;;;;;;24.44;24.78;96976.59;5054200;28;20032;-27
2021/03/22 07:51:23;;;;;;;15.07;4.13;;;;;;;24.39;24.87;96974.19;5053634;28;20042;-27
2021/03/22 07:54:11;;;;;;;13.85;4.35;;;;;;;24.37;24.93;96979.47;5057376;28;20028;-29
2021/03/22 07:56:42;;;;;;;17.33;4.05;;;;;;;24.35;24.71;96980.47;5051913;28;20503;-27
2021/03/22 07:59:24;;;;;;;12.98;3.92;;;;;;;24.33;24.87;96983.16;5054829;28;20115;-28
2021/03/22 08:02:08;;;;;;;14.60;4.25;;;;;;;24.30;24.57;96987.69;5035054;28;20045;-27
2021/03/22 08:04:56;;;;;;;15.18;3.97;;;;;;;24.29;24.69;96988.59;5051108;28;20028;-26
2021/03/22 08:07:40;;;;;;;14.98;3.72;;;;;;;24.27;24.65;96989.53;5048478;28;20222;-27
2021/03/22 08:10:28;;;;;;;12.38;3.63;;;;;;;24.26;24.83;96998.28;5051739;28;20618;-28
2021/03/22 08:13:31;;;;;;;8.98;3.13;;;;;;;24.26;25.29;96993.03;5049075;28;20028;-27
2021/03/22 08:16:09;;;;;;;7.43;2.63;;;;;;;24.30;25.27;96998.16;5052990;28;20048;-27
2021/03/22 08:18:55;;;;;;;10.98;3.00;;;;;;;24.32;25.54;97001.59;5053424;28;20016;-27
2021/03/22 08:21:38;;;;;;;7.18;2.90;;;;;;;24.36;25.91;97005.75;5069890;28;20415;-27
2021/03/22 08:24:21;;;;;;;12.18;2.95;;;;;;;24.40;25.71;97012.53;5042041;28;20179;-26
2021/03/22 08:26:53;;;;;;;10.02;2.90;;;;;;;24.43;26.05;97012.41;5056858;28;20058;-26
2021/03/22 08:29:20;;;;;;;8.70;3.17;;;;;;;24.46;25.94;97020.16;5056968;28;20038;-26
2021/03/22 08:31:49;;;;;;;8.77;2.60;;;;;;;24.48;26.25;97015.69;5054310;28;20037;-26
2021/03/22 08:34:24;;;;;;;8.32;2.50;;;;;;;24.51;26.07;97023.41;5051461;28;20043;-26
2021/03/22 08:37:03;;;;;;;5.45;2.35;;;;;;;24.55;26.20;97025.91;5054243;28;20047;-29
2021/03/22 08:39:45;;;;;;;5.75;2.42;;;;;;;24.58;26.44;97028.38;5039486;28;20031;-27
2021/03/22 08:42:17;;;;;;;7.88;2.80;;;;;;;24.61;26.17;97034.34;5039242;28;20126;-29
2021/03/22 08:44:48;;;;;;;25.05;3.88;;;;;;;24.58;24.87;97034.47;5040855;28;20024;-26
2021/03/22 08:47:36;;;;;;;12.30;3.80;;;;;;;24.41;23.42;97040.47;5058252;28;20090;-27
2021/03/22 08:50:10;;;;;;;12.98;3.83;;;;;;;24.17;22.48;97035.34;5057704;28;20052;-28
2021/03/22 08:52:53;;;;;;;15.05;3.65;;;;;;;23.92;22.11;97031.13;5057059;28;20036;-33
2021/03/22 08:55:19;;;;;;;12.52;3.30;;;;;;;23.74;22.60;97027.50;5045881;28;20033;-27
2021/03/22 08:57:53;;;;;;;9.98;3.42;;;;;;;23.64;23.04;97027.00;5030055;28;20641;-26
2021/03/22 09:00:26;;;;;;;11.00;3.35;;;;;;;23.61;23.26;97027.16;5032055;28;20060;-27
2021/03/22 09:02:56;;;;;;;12.88;3.42;;;;;;;23.60;23.53;97030.66;5042525;28;20070;-26
2021/03/22 09:05:23;;;;;;;9.57;3.17;;;;;;;23.61;23.54;97030.59;5052950;28;20550;-27
2021/03/22 09:07:48;;;;;;;10.32;2.80;;;;;;;23.65;23.61;97039.19;5050724;28;20112;-29
2021/03/22 09:10:23;;;;;;;9.82;3.35;;;;;;;23.69;23.82;97035.53;5051672;28;20091;-27
2021/03/22 09:12:48;;;;;;;9.10;3.33;;;;;;;23.77;24.05;97042.22;5048708;28;20076;-28
2021/03/22 09:15:19;;;;;;;8.85;2.88;;;;;;;23.80;23.89;97040.34;5047813;28;21819;-27
2021/03/22 09:17:48;;;;;;;14.80;3.30;;;;;;;23.86;24.03;97044.44;5053926;28;20021;-27
2021/03/22 09:20:17;;;;;;;27.27;5.07;;;;;;;23.91;24.33;97047.72;5050805;28;20089;-26
2021/03/22 09:22:46;;;;;;;16.67;4.07;;;;;;;23.96;24.38;97047.56;5053507;28;20035;-27
2021/03/22 09:25:12;;;;;;;14.75;4.15;;;;;;;24.00;24.34;97050.00;5049516;28;20024;-27
2021/03/22 09:27:38;;;;;;;15.80;3.80;;;;;;;24.05;24.52;97046.28;5050434;28;20086;-27
2021/03/22 09:30:06;;;;;;;15.43;3.88;;;;;;;24.09;24.50;97059.22;5050781;28;20050;-35
2021/03/22 09:32:33;;;;;;;18.35;3.80;;;;;;;24.13;24.42;97060.81;5058669;28;20040;-27
2021/03/22 09:35:02;;;;;;;16.10;4.00;;;;;;;24.16;24.63;97059.84;5061390;28;20499;-27
2021/03/22 09:37:51;;;;;;;19.10;4.32;;;;;;;24.20;24.75;97069.25;5060325;28;20090;-30
2021/03/22 09:40:22;;;;;;;18.23;4.53;;;;;;;24.23;24.84;97066.53;5055486;28;20115;-28
2021/03/22 09:43:11;;;;;;;17.88;3.92;;;;;;;24.27;24.67;97070.72;5062499;28;20037;-26
2021/03/22 09:45:38;;;;;;;18.75;4.05;;;;;;;24.30;24.74;97066.25;5054150;28;20059;-27
2021/03/22 09:48:16;;;;;;;17.02;4.30;;;;;;;24.33;24.70;97071.38;5064906;28;20032;-28
2021/03/22 09:50:52;;;;;;;18.17;4.05;;;;;;;24.35;24.71;97074.75;5061158;28;20400;-28
2021/03/22 09:53:31;;;;;;;18.40;4.00;;;;;;;24.37;24.94;97072.94;5046633;28;20085;-27
2021/03/22 09:56:00;;;;;;;21.48;4.15;;;;;;;24.40;24.93;97067.56;5041281;28;20480;-27
2021/03/22 09:58:27;;;;;;;15.93;3.90;;;;;;;24.42;25.07;97065.72;5058406;28;20499;-27
2021/03/22 10:00:57;;;;;;;17.08;4.18;;;;;;;24.44;24.93;97063.88;5058884;28;20056;-27
2021/03/22 10:03:34;;;;;;;14.05;3.60;;;;;;;24.47;24.87;97066.38;5059507;28;20028;-27
2021/03/22 10:06:04;;;;;;;13.60;3.80;;;;;;;24.49;25.25;97072.41;5061490;28;20096;-27
2021/03/22 10:08:33;;;;;;;14.38;3.80;;;;;;;24.49;25.25;97067.16;5056487;28;20144;-28
2021/03/22 10:10:59;;;;;;;15.90;3.53;;;;;;;24.51;25.09;97070.56;5060742;28;20508;-28
2021/03/22 10:13:40;;;;;;;9.43;3.38;;;;;;;24.53;25.10;97062.66;5057769;28;20374;-26
2021/03/22 10:16:16;;;;;;;15.85;3.60;;;;;;;24.55;25.30;97059.97;5059159;28;20044;-27
2021/03/22 10:18:53;;;;;;;15.88;3.60;;;;;;;24.56;25.33;97065.13;5063388;28;20051;-25
2021/03/22 10:21:29;;;;;;;11.02;3.35;;;;;;;24.59;25.45;97064.16;5057510;28;20121;-26
2021/03/22 10:23:58;;;;;;;12.85;3.22;;;;;;;24.59;25.54;97065.00;5040607;28;20021;-26
2021/03/22 10:26:47;;;;;;;11.13;3.00;;;;;;;24.61;25.36;97062.31;5062320;28;20028;-26
2021/03/22 10:29:19;;;;;;;11.85;2.95;;;;;;;24.62;25.42;97066.63;5049056;28;20028;-26
2021/03/22 10:31:47;;;;;;;10.05;3.05;;;;;;;24.63;25.55;97069.19;5066590;28;20040;-26
2021/03/22 10:34:24;;;;;;;9.88;2.90;;;;;;;24.66;25.36;97062.94;5057856;28;20048;-27
2021/03/22 10:36:49;;;;;;;8.52;3.00;;;;;;;24.67;25.52;97065.50;5065466;28;20024;-26
2021/03/22 10:39:33;;;;;;;8.38;2.88;;;;;;;24.69;25.62;97067.19;5064212;28;20028;-28
2021/03/22 10:41:58;;;;;;;9.85;2.95;;;;;;;24.70;25.67;97072.38;5063495;28;20032;-26
2021/03/22 10:44:26;;;;;;;11.23;3.03;;;;;;;24.71;25.75;97066.22;5047544;28;20028;-26
2021/03/22 10:47:22;;;;;;;9.65;2.95;;;;;;;24.72;25.82;97067.94;5063001;28;20105;-26
2021/03/22 10:49:48;;;;;;;9.40;2.72;;;;;;;24.74;25.59;97070.47;5049266;28;20048;-28
2021/03/22 10:52:28;;;;;;;9.52;2.38;;;;;;;24.74;25.62;97070.47;5063183;28;20523;-26
2021/03/22 10:54:54;;;;;;;9.40;2.70;;;;;;;24.74;25.66;97073.94;5060172;28;20025;-27
2021/03/22 10:57:35;;;;;;;9.77;2.80;;;;;;;24.76;25.83;97071.25;5061371;28;20556;-27
2021/03/22 11:00:28;;;;;;;7.00;2.90;;;;;;;24.75;25.70;97070.41;5063439;28;20424;-26
2021/03/22 11:02:53;;;;;;;8.90;2.75;;;;;;;24.78;25.78;97074.66;5058291;28;20049;-27
2021/03/22 11:05:19;;;;;;;7.90;2.90;;;;;;;24.78;25.98;97078.13;5049357;28;20082;-27
2021/03/22 11:07:55;;;;;;;6.85;2.20;;;;;;;24.78;25.87;97078.13;5063939;28;20029;-27
2021/03/22 11:10:21;;;;;;;8.23;2.47;;;;;;;24.79;25.97;97071.13;5062620;28;20020;-27
2021/03/22 11:12:49;;;;;;;7.70;2.40;;;;;;;24.80;25.98;97080.69;5063226;28;20020;-25
2021/03/22 11:15:40;;;;;;;6.40;2.13;;;;;;;24.80;25.94;97075.44;5049714;28;20111;-27
2021/03/22 11:18:07;;;;;;;6.20;2.40;;;;;;;24.82;25.82;97078.00;5056662;28;20045;-27
2021/03/22 11:20:32;;;;;;;7.10;2.33;;;;;;;24.82;25.98;97075.38;5062229;28;20098;-26
2021/03/22 11:23:18;;;;;;;5.78;2.30;;;;;;;24.83;26.17;97082.31;5061664;28;20715;-26
2021/03/22 11:25:44;;;;;;;7.90;2.58;;;;;;;24.84;26.25;97076.19;5068328;28;20031;-26
2021/03/22 11:28:26;;;;;;;5.20;2.25;;;;;;;24.85;26.07;97077.88;5066646;28;20029;-27
2021/03/22 11:30:54;;;;;;;;;;;;;;;24.85;26.12;97078.75;5057628;28;20037;-27
2021/03/22 11:33:24;;;;;;;7.20;2.08;;;;;;;24.86;26.06;97074.38;5063983;28;20341;-27
2021/03/22 11:36:11;;;;;;;4.07;1.83;;;;;;;24.86;26.15;97077.81;5067226;28;20121;-27
2021/03/22 11:38:48;;;;;;;4.15;1.88;;;;;;;24.86;26.13;97075.19;5059010;28;20027;-26
2021/03/22 11:41:49;;;;;;;6.35;2.08;;;;;;;24.87;26.31;97076.06;5064873;28;20032;-26
2021/03/22 11:44:23;;;;;;;5.72;2.50;;;;;;;24.87;26.43;97073.44;5063518;28;20039;-25
2021/03/22 11:46:51;;;;;;;5.00;1.90;;;;;;;24.86;26.19;97072.56;5061332;28;20047;-26
2021/03/22 11:49:45;;;;;;;4.20;1.98;;;;;;;24.87;26.42;97060.34;5062171;28;20017;-29
2021/03/22 11:52:21;;;;;;;5.03;1.80;;;;;;;24.88;26.29;97056.78;5080821;28;20032;-27
2021/03/22 11:54:56;;;;;;;4.43;1.80;;;;;;;24.88;26.41;97062.88;5062680;28;20591;-25